Nearby METAR Reports

 

KCPC - Whiteville, North Carolina, USA
Distance from station: NNE 17mi, 28km
Updated: 05/24/2017 1:25pm
Mostly cloudy
Mostly cloudy
 Wind from S
Wind: S 6 mph , 9 km/h
Temperature: 79°F , 26°C
Dew Point: 70°F , 21°C
Humidity: 74%
Barometer: 29.66 inHg , 1004.4 hPa
Clouds: Mostly cloudy
Visibility: 10 miles , 16 km
Cloud details: Partly cloudy 2500 ft
Partly cloudy 3100 ft
Mostly cloudy 4300 ft
2017/05/24 17:25 KCPC 241725Z AUTO 19005KT 10SM SCT025 SCT031 BKN043 26/21 A2966 RMK AO2 T02630205
KCRE - North Myrtle Bea, South Carolina, USA
Distance from station: SSE 19mi, 31km
Updated: 05/24/2017 12:53pm
Few Clouds
Few Clouds
 Wind from SSW
Wind: SSW 15 mph , 24 km/h
Temperature: 79°F , 26°C
Dew Point: 73°F , 23°C
Humidity: 84%
Barometer: 29.67 inHg , 1004.7 hPa
Clouds: Few Clouds
Visibility: 10 miles , 16 km
Cloud details: Few Clouds 1000 ft
2017/05/24 16:53 KCRE 241653Z 20013KT 10SM FEW010 26/23 A2967 RMK AO1 SLP049 T02610228
 
KHYW - Conway-Horry Cty, South Carolina, USA
Distance from station: SW 22mi, 35km
Updated: 05/24/2017 1:15pm
Haze, Mostly cloudy
Haze, Mostly cloudy
 Wind from S
Wind: S 6 mph , 9 km/h
Temperature: 81°F , 27°C
Heat Index: 85°F , 29°C
Dew Point: 70°F , 21°C
Humidity: 70%
Barometer: 29.65 inHg , 1004.1 hPa
Summary: Haze
Clouds: Mostly cloudy
Visibility: 5 miles , 8 km
Cloud details: Partly cloudy 2500 ft
Partly cloudy 3000 ft
Mostly cloudy 5500 ft
2017/05/24 17:15 KHYW 241715Z AUTO 18005KT 5SM HZ SCT025 SCT030 BKN055 27/21 A2965 RMK AO2
KMAO - Marion, South Carolina, USA
Distance from station: WNW 28mi, 45km
Updated: 05/24/2017 1:15pm
Mostly cloudy
Mostly cloudy
 Wind from S
Wind: S 6 mph , 9 km/h
Temperature: 77°F , 25°C
Dew Point: 70°F , 21°C
Humidity: 79%
Barometer: 29.64 inHg , 1003.7 hPa
Clouds: Mostly cloudy
Visibility: 7 miles , 11 km
Cloud details: Mostly cloudy 2200 ft
Mostly cloudy 2600 ft
Mostly cloudy 3800 ft
2017/05/24 17:15 KMAO 241715Z AUTO 18005KT 7SM BKN022 BKN026 BKN038 25/21 A2964 RMK AO2
 
KMYR - Myrtle Beach, South Carolina, USA
Distance from station: S 28mi, 45km
Updated: 05/24/2017 12:45pm
Mostly cloudy
Mostly cloudy
 Wind from SSW
Wind: SSW 18 mph , 30 km/h
Temperature: 79°F , 26°C
Dew Point: 73°F , 23°C
Humidity: 84%
Barometer: 29.67 inHg , 1004.7 hPa
Clouds: Mostly cloudy
Visibility: 10 miles , 16 km
Cloud details: Mostly cloudy 2000 ft
Mostly cloudy 3000 ft
2017/05/24 16:45 KMYR 241645Z 21016KT 10SM BKN020 BKN030 26/23 A2967
KLBT - Lumberton, North Carolina, USA
Distance from station: NNW 39mi, 62km
Updated: 05/24/2017 12:54pm
Mostly cloudy
Mostly cloudy
 Wind from varies
Wind: varies 6 mph , 9 km/h
Temperature: 75°F , 24°C
Dew Point: 70°F , 21°C
Humidity: 83%
Barometer: 29.65 inHg , 1004.1 hPa
Clouds: Mostly cloudy
Visibility: 10 miles , 16 km
Cloud details: Few Clouds 1800 ft
Partly cloudy 2400 ft
Mostly cloudy 4100 ft
2017/05/24 16:54 KLBT 241654Z AUTO VRB05KT 10SM FEW018 SCT024 BKN041 24/21 A2965 RMK AO2 RAE1559 SLP040 P0000 T02440211
 
KSUT - Southport, North Carolina, USA
Distance from station: E 46mi, 74km
Updated: 05/24/2017 1:35pm
Partly cloudy
Partly cloudy
 Wind from SW
Wind: SW 9 mph , 15 km/h
Temperature: 81°F , 27°C
Heat Index: 86°F , 30°C
Dew Point: 73°F , 23°C
Humidity: 79%
Barometer: 29.69 inHg , 1005.4 hPa
Clouds: Partly cloudy
Visibility: 10 miles , 16 km
Cloud details: Partly cloudy 1300 ft
2017/05/24 17:35 KSUT 241735Z AUTO 23008KT 200V260 10SM SCT013 27/23 A2969 RMK AO2 T02740226
KFLO - Florence, South Carolina, USA
Distance from station: W 50mi, 81km
Updated: 05/24/2017 12:53pm
Mostly cloudy
Mostly cloudy
 Wind from SSW
Wind: SSW 10 mph , 17 km/h
Temperature: 77°F , 25°C
Dew Point: 70°F , 21°C
Humidity: 79%
Barometer: 29.65 inHg , 1004.1 hPa
Clouds: Mostly cloudy
Visibility: 10 miles , 16 km
Cloud details: Mostly cloudy 2000 ft
Mostly cloudy 4900 ft
2017/05/24 16:53 KFLO 241653Z 21009KT 10SM BKN020 BKN049 25/21 A2965 RMK AO2 SLP036 T02500211